createdAt,value
2022-08-23T00:01:36.340Z,8.77
2022-08-23T00:04:08.144Z,8.55
2022-08-23T00:06:38.020Z,10.80
2022-08-23T00:09:06.509Z,10.32
2022-08-23T00:11:47.732Z,9.55
2022-08-23T00:14:22.581Z,8.63
2022-08-23T00:16:50.462Z,8.93
2022-08-23T00:19:19.931Z,9.13
2022-08-23T00:21:48.625Z,9.43
2022-08-23T00:24:17.184Z,8.27
2022-08-23T00:26:59.270Z,9.93
2022-08-23T00:29:33.502Z,9.45
2022-08-23T00:32:01.808Z,9.13
2022-08-23T00:34:29.467Z,10.15
2022-08-23T00:36:57.494Z,11.07
2022-08-23T00:39:25.632Z,11.65
2022-08-23T00:41:57.975Z,10.02
2022-08-23T00:44:49.294Z,11.70
2022-08-23T00:47:35.890Z,11.40
2022-08-23T00:50:33.192Z,10.73
2022-08-23T00:53:25.374Z,12.60
2022-08-23T00:55:57.577Z,12.98
2022-08-23T00:58:26.197Z,11.83
2022-08-23T01:00:55.982Z,12.10
2022-08-23T01:03:25.419Z,13.77
2022-08-23T01:06:14.772Z,14.40
2022-08-23T01:08:46.071Z,14.40
2022-08-23T01:11:38.038Z,15.23
2022-08-23T01:14:15.826Z,15.50
2022-08-23T01:16:54.376Z,15.13
2022-08-23T01:19:31.624Z,15.65
2022-08-23T01:22:13.591Z,16.23
2022-08-23T01:25:06.265Z,15.23
2022-08-23T01:27:31.535Z,15.65
2022-08-23T01:30:00.669Z,14.65
2022-08-23T01:32:32.489Z,16.52
2022-08-23T01:35:00.381Z,17.40
2022-08-23T01:37:28.310Z,16.52
2022-08-23T01:39:58.979Z,17.20
2022-08-23T01:42:29.011Z,15.53
2022-08-23T01:44:56.899Z,15.32
2022-08-23T01:47:25.024Z,17.20
2022-08-23T01:49:53.099Z,17.37
2022-08-23T01:52:21.393Z,18.25
2022-08-23T01:54:49.282Z,16.60
2022-08-23T01:57:17.724Z,17.45
2022-08-23T01:59:48.479Z,17.55
2022-08-23T02:02:17.060Z,15.98
2022-08-23T02:04:44.952Z,18.02
2022-08-23T02:07:12.513Z,17.63
2022-08-23T02:09:40.365Z,17.83
2022-08-23T02:12:17.347Z,18.27
2022-08-23T02:14:45.581Z,19.12
2022-08-23T02:17:17.883Z,20.00
2022-08-23T02:19:45.622Z,20.45
2022-08-23T02:22:13.285Z,20.60
2022-08-23T02:24:46.892Z,18.17
2022-08-23T02:27:16.004Z,19.27
2022-08-23T02:29:45.500Z,21.00
2022-08-23T02:32:15.753Z,21.48
2022-08-23T02:35:04.639Z,21.27
2022-08-23T02:37:34.500Z,22.02
2022-08-23T02:40:03.982Z,21.58
2022-08-23T02:42:31.730Z,21.33
2022-08-23T02:45:02.579Z,21.40
2022-08-23T02:47:35.244Z,22.10
2022-08-23T02:50:09.264Z,22.45
2022-08-23T02:52:36.720Z,21.77
2022-08-23T02:55:05.394Z,20.17
2022-08-23T02:57:35.191Z,21.02
2022-08-23T03:00:03.718Z,21.35
2022-08-23T03:02:32.711Z,22.23
2022-08-23T03:05:00.685Z,19.55
2022-08-23T03:07:31.412Z,21.17
2022-08-23T03:10:04.953Z,21.55
2022-08-23T03:12:38.527Z,21.65
2022-08-23T03:15:07.498Z,20.70
2022-08-23T03:17:35.828Z,21.77
2022-08-23T03:20:04.775Z,20.73
2022-08-23T03:22:36.301Z,20.73
2022-08-23T03:25:06.902Z,20.95
2022-08-23T03:27:35.824Z,18.97
2022-08-23T03:30:17.953Z,18.98
2022-08-23T03:32:49.520Z,17.65
2022-08-23T03:35:17.499Z,16.30
2022-08-23T03:37:45.313Z,18.00
2022-08-23T03:40:14.071Z,18.45
2022-08-23T03:42:41.564Z,15.50
2022-08-23T03:45:09.553Z,16.42
2022-08-23T03:47:37.393Z,15.90
2022-08-23T03:50:05.847Z,13.77
2022-08-23T03:52:34.214Z,13.65
2022-08-23T03:55:02.141Z,14.00
2022-08-23T03:57:34.152Z,13.23
2022-08-23T04:00:02.263Z,14.30
2022-08-23T04:02:36.158Z,13.60
2022-08-23T04:05:11.431Z,15.52
2022-08-23T04:07:40.963Z,14.40
2022-08-23T04:10:12.848Z,15.17
2022-08-23T04:12:41.338Z,16.02
2022-08-23T04:15:14.371Z,15.50
2022-08-23T04:17:43.010Z,16.10
2022-08-23T04:20:11.255Z,19.90
2022-08-23T04:22:39.190Z,18.10
2022-08-23T04:25:10.118Z,17.70
2022-08-23T04:27:55.270Z,22.27
2022-08-23T04:30:23.215Z,19.62
2022-08-23T04:32:51.592Z,20.63
2022-08-23T04:35:19.379Z,18.00
2022-08-23T04:37:47.355Z,18.23
2022-08-23T04:40:40.371Z,19.75
2022-08-23T04:43:18.661Z,20.20
2022-08-23T04:45:57.577Z,21.95
2022-08-23T04:48:25.973Z,21.73
2022-08-23T04:50:53.598Z,19.07
2022-08-23T04:53:21.305Z,22.20
2022-08-23T04:55:52.567Z,19.60
2022-08-23T04:58:20.616Z,20.80
2022-08-23T05:00:53.027Z,18.98
2022-08-23T05:03:23.682Z,20.08
2022-08-23T05:05:54.043Z,19.35
2022-08-23T05:08:22.474Z,22.17
2022-08-23T05:10:50.319Z,22.05
2022-08-23T05:13:18.151Z,22.30
2022-08-23T05:15:51.167Z,21.27
2022-08-23T05:18:29.443Z,21.83
2022-08-23T05:20:57.666Z,20.35
2022-08-23T05:23:31.994Z,20.83
2022-08-23T05:26:01.998Z,22.50
2022-08-23T05:28:34.966Z,21.33
2022-08-23T05:31:11.501Z,23.43
2022-08-23T05:33:41.146Z,22.20
2022-08-23T05:36:12.803Z,21.00
2022-08-23T05:38:41.372Z,19.85
2022-08-23T05:41:10.331Z,19.30
2022-08-23T05:43:42.810Z,19.95
2022-08-23T05:46:16.148Z,21.70
2022-08-23T05:48:51.031Z,21.33
2022-08-23T05:51:18.947Z,22.10
2022-08-23T05:53:47.694Z,22.10
2022-08-23T05:56:23.788Z,22.20
2022-08-23T05:58:56.624Z,23.23
2022-08-23T06:01:29.159Z,20.75
2022-08-23T06:04:01.452Z,20.37
2022-08-23T06:06:36.388Z,23.52
2022-08-23T06:09:08.324Z,22.65
2022-08-23T06:11:36.736Z,23.60
2022-08-23T06:14:15.630Z,21.65
2022-08-23T06:16:51.694Z,20.80
2022-08-23T06:19:24.135Z,22.10
2022-08-23T06:21:55.886Z,21.05
2022-08-23T06:24:23.988Z,22.00
2022-08-23T06:26:51.993Z,21.15
2022-08-23T06:29:20.269Z,21.73
2022-08-23T06:31:50.835Z,22.50
2022-08-23T06:34:33.755Z,21.12
2022-08-23T06:37:06.130Z,22.27
2022-08-23T06:39:37.653Z,21.67
2022-08-23T06:42:22.228Z,21.57
2022-08-23T06:45:00.900Z,20.90
2022-08-23T06:47:29.325Z,21.50
2022-08-23T06:49:58.566Z,22.13
2022-08-23T06:52:29.793Z,22.23
2022-08-23T06:54:58.652Z,22.40
2022-08-23T06:57:26.570Z,23.15
2022-08-23T06:59:56.064Z,22.90
2022-08-23T07:02:24.895Z,21.00
2022-08-23T07:04:58.915Z,21.12
2022-08-23T07:07:37.551Z,19.25
2022-08-23T07:14:10.935Z,22.48
2022-08-23T07:16:44.698Z,22.30
2022-08-23T07:19:14.966Z,21.15
2022-08-23T07:21:43.829Z,22.37
2022-08-23T07:24:13.835Z,23.55
2022-08-23T07:26:42.766Z,22.90
2022-08-23T07:29:11.754Z,20.83
2022-08-23T07:31:43.671Z,21.10
2022-08-23T07:34:11.900Z,21.27
2022-08-23T07:36:41.486Z,20.58
2022-08-23T07:39:09.962Z,20.30
2022-08-23T07:41:38.870Z,20.00
2022-08-23T07:44:08.914Z,21.52
2022-08-23T07:46:39.800Z,20.60
2022-08-23T07:49:11.273Z,20.62
2022-08-23T07:51:40.304Z,18.77
2022-08-23T08:00:43.535Z,19.98
2022-08-23T08:03:13.754Z,17.12
2022-08-23T08:05:42.037Z,18.73
2022-08-23T08:08:10.196Z,18.62
2022-08-23T08:10:43.946Z,18.05
2022-08-23T08:13:11.561Z,19.00
2022-08-23T08:15:45.819Z,16.92
2022-08-23T08:18:25.872Z,16.40
2022-08-23T08:20:59.494Z,14.77
2022-08-23T08:23:30.495Z,16.30
2022-08-23T08:26:06.639Z,13.85
2022-08-23T08:28:36.918Z,15.93
2022-08-23T08:31:07.247Z,16.30
2022-08-23T08:33:35.435Z,14.98
2022-08-23T08:36:04.944Z,14.17
2022-08-23T08:38:48.506Z,15.43
2022-08-23T08:41:26.640Z,13.60
2022-08-23T08:44:11.947Z,13.10
2022-08-23T08:46:49.405Z,12.05
2022-08-23T08:49:58.387Z,12.90
2022-08-23T08:52:49.885Z,11.70
2022-08-23T08:55:34.956Z,10.32
2022-08-23T08:58:09.132Z,11.75
2022-08-23T09:00:41.474Z,10.90
2022-08-23T09:03:15.242Z,11.55
2022-08-23T09:05:50.601Z,10.23
2022-08-23T09:08:35.220Z,11.50
2022-08-23T09:11:15.997Z,11.10
2022-08-23T09:13:53.902Z,11.77
2022-08-23T09:16:54.867Z,11.40
2022-08-23T09:19:25.823Z,11.60
2022-08-23T09:22:04.433Z,11.65
2022-08-23T09:24:42.239Z,10.30
2022-08-23T09:27:18.389Z,10.25
2022-08-23T09:30:05.442Z,9.00
2022-08-23T09:32:44.118Z,10.75
2022-08-23T09:35:17.721Z,10.93
2022-08-23T09:38:20.141Z,11.95
2022-08-23T09:40:51.427Z,13.02
2022-08-23T09:43:28.271Z,12.00
2022-08-23T09:46:01.973Z,9.75
2022-08-23T09:48:49.253Z,10.90
2022-08-23T09:51:32.624Z,10.83
2022-08-23T09:54:23.714Z,9.93
2022-08-23T09:57:02.909Z,10.13
2022-08-23T09:59:45.631Z,9.43
2022-08-23T10:02:38.307Z,9.77
2022-08-23T10:05:20.824Z,11.23
2022-08-23T10:08:00.995Z,10.37
2022-08-23T10:10:38.936Z,11.07
2022-08-23T10:13:07.802Z,11.07
2022-08-23T10:16:06.794Z,11.38
2022-08-23T10:18:51.492Z,11.52
2022-08-23T10:21:42.692Z,10.83
2022-08-23T10:24:43.778Z,13.30
2022-08-23T10:27:38.981Z,10.45
2022-08-23T10:30:12.822Z,9.93
2022-08-23T10:33:01.122Z,10.30
2022-08-23T10:35:51.731Z,10.05
2022-08-23T10:38:40.393Z,10.05
2022-08-23T10:41:22.424Z,10.95
2022-08-23T10:43:53.967Z,10.60
2022-08-23T10:46:26.174Z,10.98
2022-08-23T10:48:58.162Z,10.52
2022-08-23T10:51:32.389Z,10.83
2022-08-23T10:54:12.906Z,9.40
2022-08-23T10:56:50.856Z,10.00
2022-08-23T10:59:26.321Z,9.80
2022-08-23T11:02:38.322Z,9.38
2022-08-23T11:05:31.264Z,10.55
2022-08-23T11:08:08.652Z,11.83
2022-08-23T11:10:56.192Z,10.73
2022-08-23T11:13:30.090Z,10.45
2022-08-23T11:16:13.059Z,10.25
2022-08-23T11:18:49.230Z,9.40
2022-08-23T11:21:19.593Z,14.60
2022-08-23T11:23:59.059Z,12.43
2022-08-23T11:26:30.225Z,9.43
2022-08-23T11:29:11.023Z,11.43
2022-08-23T11:31:50.853Z,12.02
2022-08-23T11:34:29.373Z,11.80
2022-08-23T11:37:26.384Z,12.40
2022-08-23T11:39:59.003Z,10.85
2022-08-23T11:42:44.321Z,12.18
2022-08-23T11:45:27.635Z,12.15
2022-08-23T11:48:13.733Z,11.52
2022-08-23T11:51:27.567Z,12.57
2022-08-23T11:54:13.480Z,11.20
2022-08-23T11:56:58.542Z,12.13
2022-08-23T12:00:07.161Z,13.43
2022-08-23T12:02:38.933Z,13.77
2022-08-23T12:05:18.153Z,11.57
2022-08-23T12:07:54.035Z,13.25
2022-08-23T12:10:42.223Z,11.50
2022-08-23T12:13:18.840Z,10.87
2022-08-23T12:16:05.526Z,10.15
2022-08-23T12:18:47.630Z,11.25
2022-08-23T12:21:27.781Z,12.27
2022-08-23T12:24:02.851Z,11.60
2022-08-23T12:26:43.565Z,10.27
2022-08-23T12:29:41.858Z,11.15
2022-08-23T12:32:48.598Z,10.50
2022-08-23T12:35:40.825Z,10.88
2022-08-23T12:38:18.687Z,9.07
2022-08-23T12:40:50.714Z,10.07
2022-08-23T12:43:26.984Z,10.20
2022-08-23T12:46:01.242Z,10.00
2022-08-23T12:48:33.748Z,9.75
2022-08-23T12:51:03.291Z,9.45
2022-08-23T12:53:45.359Z,8.65
2022-08-23T12:56:22.818Z,10.05
2022-08-23T12:59:05.109Z,10.60
2022-08-23T13:01:35.806Z,9.48
2022-08-23T13:04:11.189Z,9.95
2022-08-23T13:06:51.309Z,12.33
2022-08-23T13:09:27.354Z,12.03
2022-08-23T13:11:58.084Z,9.90
2022-08-23T13:14:31.176Z,10.95
2022-08-23T13:17:26.020Z,11.50
2022-08-23T13:19:59.162Z,11.20
2022-08-23T13:22:27.396Z,11.27
2022-08-23T13:25:28.020Z,12.15
2022-08-23T13:27:56.261Z,10.68
2022-08-23T13:30:27.392Z,9.23
2022-08-23T13:33:04.222Z,11.68
2022-08-23T13:35:43.276Z,12.82
2022-08-23T13:38:21.222Z,12.57
2022-08-23T13:41:35.597Z,11.63
2022-08-23T13:44:16.953Z,11.12
2022-08-23T13:46:48.180Z,11.00
2022-08-23T13:49:26.334Z,11.80
2022-08-23T13:52:32.987Z,10.38
2022-08-23T13:54:50.927Z,10.57
2022-08-23T13:57:22.487Z,10.02
2022-08-23T13:59:54.009Z,9.27
2022-08-23T14:02:24.249Z,9.18
2022-08-23T14:04:52.321Z,8.02
2022-08-23T14:07:20.727Z,11.52
2022-08-23T14:09:52.012Z,9.45
2022-08-23T14:12:25.400Z,9.45
2022-08-23T14:14:56.743Z,9.13
2022-08-23T14:17:25.317Z,9.63
2022-08-23T14:22:41.041Z,9.07
2022-08-23T14:25:10.095Z,10.05
2022-08-23T14:27:40.114Z,10.75
2022-08-23T14:30:13.240Z,8.60
2022-08-23T14:32:45.831Z,9.80
2022-08-23T14:35:16.874Z,7.93
2022-08-23T14:38:03.775Z,7.70
2022-08-23T14:40:33.740Z,9.02
2022-08-23T14:43:03.869Z,8.45
2022-08-23T14:45:32.969Z,8.77
2022-08-23T14:48:03.454Z,10.30
2022-08-23T14:50:37.909Z,9.18
2022-08-23T14:53:11.833Z,9.45
2022-08-23T14:56:02.426Z,8.77
2022-08-23T14:58:46.070Z,9.38
2022-08-23T15:01:20.243Z,8.80
2022-08-23T15:03:51.412Z,9.23
2022-08-23T15:06:21.186Z,8.40
2022-08-23T15:08:53.536Z,8.23
2022-08-23T15:14:12.456Z,8.38
2022-08-23T15:16:40.327Z,8.43
2022-08-23T15:19:10.434Z,8.65
2022-08-23T15:21:38.569Z,8.30
2022-08-23T15:24:07.058Z,9.00
2022-08-23T15:26:35.167Z,7.57
2022-08-23T15:29:03.393Z,8.45
2022-08-23T15:31:31.298Z,9.98
2022-08-23T15:34:01.032Z,8.18
2022-08-23T15:36:35.315Z,8.38
2022-08-23T15:39:03.073Z,8.73
2022-08-23T15:41:32.035Z,7.60
2022-08-23T15:43:59.814Z,8.13
2022-08-23T15:46:27.638Z,8.97
2022-08-23T15:49:04.715Z,7.62
2022-08-23T15:51:35.431Z,8.00
2022-08-23T15:54:05.505Z,7.93
2022-08-23T15:56:43.955Z,8.93
2022-08-23T15:59:19.402Z,8.65
2022-08-23T16:01:48.825Z,8.07
2022-08-23T16:04:18.209Z,8.20
2022-08-23T16:06:46.591Z,9.20
2022-08-23T16:09:24.011Z,8.52
2022-08-23T16:11:54.329Z,7.60
2022-08-23T16:14:28.463Z,8.85
2022-08-23T16:16:57.098Z,7.63
2022-08-23T16:19:27.184Z,8.85
2022-08-23T16:21:59.347Z,8.68
2022-08-23T16:24:36.460Z,8.40
2022-08-23T16:27:08.864Z,9.23
2022-08-23T16:29:39.515Z,8.02
2022-08-23T16:32:08.431Z,9.85
2022-08-23T16:34:36.221Z,8.57
2022-08-23T16:37:08.112Z,8.52
2022-08-23T16:39:37.589Z,8.32
2022-08-23T16:42:11.122Z,10.57
2022-08-23T16:44:39.459Z,9.30
2022-08-23T16:47:10.636Z,8.30
2022-08-23T16:49:39.161Z,8.05
2022-08-23T16:52:08.223Z,8.90
2022-08-23T16:54:36.754Z,7.90
2022-08-23T16:57:04.780Z,10.18
2022-08-23T16:59:36.175Z,7.77
2022-08-23T17:02:11.397Z,9.18
2022-08-23T17:04:42.966Z,7.20
2022-08-23T17:07:10.709Z,10.93
2022-08-23T17:09:38.474Z,8.48
2022-08-23T17:12:07.028Z,7.32
2022-08-23T17:14:34.587Z,7.78
2022-08-23T17:17:03.811Z,8.70
2022-08-23T17:19:31.726Z,7.90
2022-08-23T17:22:00.150Z,7.95
2022-08-23T17:24:27.960Z,8.15
2022-08-23T17:26:56.796Z,9.02
2022-08-23T17:29:24.688Z,9.18
2022-08-23T17:31:52.407Z,8.77
2022-08-23T17:34:21.206Z,8.57
2022-08-23T17:36:52.378Z,8.23
2022-08-23T17:39:32.232Z,7.80
2022-08-23T17:42:04.001Z,7.93
2022-08-23T17:44:36.897Z,8.20
2022-08-23T17:47:07.705Z,7.95
2022-08-23T17:49:36.972Z,6.82
2022-08-23T17:52:15.517Z,7.40
2022-08-23T17:54:43.579Z,7.90
2022-08-23T17:57:11.721Z,7.32
2022-08-23T17:59:41.751Z,8.93
2022-08-23T18:02:09.702Z,8.15
2022-08-23T18:04:38.941Z,10.18
2022-08-23T18:07:08.249Z,7.40
2022-08-23T18:09:46.497Z,7.72
2022-08-23T18:12:17.294Z,7.97
2022-08-23T18:14:52.640Z,7.87
2022-08-23T18:17:22.581Z,7.90
2022-08-23T18:19:51.242Z,7.05
2022-08-23T18:22:24.453Z,6.80
2022-08-23T18:24:53.323Z,7.35
2022-08-23T18:27:43.049Z,8.35
2022-08-23T18:30:16.828Z,7.72
2022-08-23T18:32:51.755Z,7.90
2022-08-23T18:35:23.168Z,8.10
2022-08-23T18:37:53.081Z,6.65
2022-08-23T18:40:21.725Z,7.15
2022-08-23T18:42:54.563Z,7.93
2022-08-23T18:45:32.105Z,7.37
2022-08-23T18:48:00.450Z,8.32
2022-08-23T18:50:41.707Z,7.67
2022-08-23T18:53:20.065Z,7.93
2022-08-23T18:55:50.461Z,6.90
2022-08-23T18:58:20.223Z,9.07
2022-08-23T19:00:50.909Z,6.87
2022-08-23T19:03:19.740Z,6.85
2022-08-23T19:05:50.531Z,7.60
2022-08-23T19:08:21.946Z,7.10
2022-08-23T19:10:49.917Z,6.85
2022-08-23T19:13:18.416Z,6.32
2022-08-23T19:15:53.284Z,6.50
2022-08-23T19:18:21.733Z,7.43
2022-08-23T19:20:50.100Z,7.10
2022-08-23T19:23:26.202Z,7.62
2022-08-23T19:25:59.454Z,7.93
2022-08-23T19:28:28.316Z,7.62
2022-08-23T19:30:56.979Z,8.23
2022-08-23T19:33:25.746Z,7.72
2022-08-23T19:35:54.125Z,8.05
2022-08-23T19:38:29.735Z,8.00
2022-08-23T19:40:58.660Z,7.53
2022-08-23T19:43:27.366Z,7.75
2022-08-23T19:45:59.902Z,10.45
2022-08-23T19:48:28.559Z,7.68
2022-08-23T19:50:56.519Z,6.75
2022-08-23T19:53:24.652Z,6.68
2022-08-23T19:55:53.137Z,7.57
2022-08-23T19:58:31.143Z,7.45
2022-08-23T20:01:05.335Z,6.93
2022-08-23T20:03:33.894Z,7.80
2022-08-23T20:06:02.914Z,7.12
2022-08-23T20:08:32.766Z,7.45
2022-08-23T20:11:01.784Z,8.55
2022-08-23T20:13:30.520Z,7.55
2022-08-23T20:15:58.673Z,9.30
2022-08-23T20:18:30.212Z,7.35
2022-08-23T20:21:05.189Z,7.72
2022-08-23T20:23:51.958Z,6.97
2022-08-23T20:26:22.779Z,8.20
2022-08-23T20:28:59.639Z,7.57
2022-08-23T20:31:35.799Z,7.83
2022-08-23T20:34:05.432Z,7.35
2022-08-23T20:36:33.674Z,7.35
2022-08-23T20:39:02.189Z,7.75
2022-08-23T20:41:39.474Z,8.10
2022-08-23T20:44:08.807Z,7.28
2022-08-23T20:46:39.777Z,8.80
2022-08-23T20:49:13.003Z,7.57
2022-08-23T20:51:41.410Z,7.20
2022-08-23T20:54:10.084Z,7.95
2022-08-23T20:56:39.182Z,7.20
2022-08-23T20:59:14.773Z,6.97
2022-08-23T21:01:44.725Z,7.03
2022-08-23T21:04:13.230Z,7.97
2022-08-23T21:06:51.686Z,6.95
2022-08-23T21:09:29.370Z,7.50
2022-08-23T21:11:58.223Z,7.20
2022-08-23T21:14:26.144Z,6.62
2022-08-23T21:16:56.613Z,7.90
2022-08-23T21:19:30.379Z,8.18
2022-08-23T21:21:58.637Z,6.95
2022-08-23T21:24:26.478Z,7.72
2022-08-23T21:26:54.185Z,7.90
2022-08-23T21:29:22.213Z,8.50
2022-08-23T21:31:49.800Z,8.20
2022-08-23T21:34:19.918Z,8.02
2022-08-23T21:36:47.911Z,8.37
2022-08-23T21:39:15.850Z,8.07
2022-08-23T21:41:49.304Z,9.80
2022-08-23T21:44:20.365Z,8.68
2022-08-23T21:46:50.771Z,7.70
2022-08-23T21:49:24.239Z,9.80
2022-08-23T21:51:56.037Z,9.90
2022-08-23T21:54:24.677Z,8.65
2022-08-23T21:56:55.945Z,8.90
2022-08-23T21:59:26.895Z,8.03
2022-08-23T22:01:54.818Z,8.70
2022-08-23T22:04:23.398Z,10.90
2022-08-23T22:06:51.000Z,8.15
2022-08-23T22:09:25.691Z,9.65
2022-08-23T22:12:00.380Z,8.30
2022-08-23T22:14:31.377Z,9.13
2022-08-23T22:17:00.756Z,9.48
2022-08-23T22:19:29.370Z,9.55
2022-08-23T22:21:57.262Z,8.73
2022-08-23T22:24:26.334Z,10.13
2022-08-23T22:26:55.550Z,10.00
2022-08-23T22:29:23.717Z,8.82
2022-08-23T22:31:51.969Z,9.65
2022-08-23T22:34:25.732Z,9.60
2022-08-23T22:36:55.848Z,10.10
2022-08-23T22:39:24.046Z,8.98
2022-08-23T22:41:53.792Z,9.10
2022-08-23T22:44:22.531Z,8.90
2022-08-23T22:46:51.967Z,8.83
2022-08-23T22:49:20.193Z,9.25
2022-08-23T22:51:52.074Z,9.07
2022-08-23T22:54:25.318Z,10.73
2022-08-23T22:56:56.513Z,10.35
2022-08-23T22:59:27.647Z,10.40
2022-08-23T23:02:03.513Z,9.93
2022-08-23T23:04:32.933Z,10.13
2022-08-23T23:07:01.400Z,11.30
2022-08-23T23:09:29.305Z,10.40
2022-08-23T23:11:57.561Z,11.27
2022-08-23T23:14:28.979Z,10.07
2022-08-23T23:16:57.103Z,9.95
2022-08-23T23:19:47.293Z,9.63
2022-08-23T23:22:15.567Z,10.02
2022-08-23T23:24:45.674Z,11.23
2022-08-23T23:27:16.599Z,10.57
2022-08-23T23:29:44.746Z,9.63
2022-08-23T23:32:12.296Z,9.85
2022-08-23T23:34:40.371Z,9.05
2022-08-23T23:37:08.538Z,11.05
2022-08-23T23:39:36.369Z,9.98
2022-08-23T23:42:04.221Z,9.75
2022-08-23T23:44:32.371Z,11.20
2022-08-23T23:47:01.964Z,10.13
2022-08-23T23:49:33.800Z,10.90
2022-08-23T23:52:04.932Z,12.48
2022-08-23T23:54:34.105Z,12.70
2022-08-23T23:57:03.067Z,12.77
2022-08-23T23:59:31.590Z,12.85
